createdAt,value
2022-12-23T00:00:16.226Z,38.25
2022-12-23T00:02:44.445Z,33.75
2022-12-23T00:05:13.499Z,35.00
2022-12-23T00:07:41.393Z,35.25
2022-12-23T00:10:10.471Z,37.00
2022-12-23T00:12:56.035Z,29.50
2022-12-23T00:15:25.280Z,33.00
2022-12-23T00:17:53.123Z,31.75
2022-12-23T00:20:21.222Z,32.00
2022-12-23T00:23:07.545Z,28.25
2022-12-23T00:25:41.717Z,29.75
2022-12-23T00:28:11.712Z,28.00
2022-12-23T00:30:46.158Z,29.00
2022-12-23T00:33:14.103Z,28.25
2022-12-23T00:35:42.080Z,33.00
2022-12-23T00:38:09.963Z,29.00
2022-12-23T00:40:55.099Z,26.50
2022-12-23T00:43:23.023Z,29.75
2022-12-23T00:45:52.673Z,27.00
2022-12-23T00:48:37.983Z,26.75
2022-12-23T00:51:06.608Z,24.75
2022-12-23T00:53:34.816Z,24.25
2022-12-23T00:56:02.700Z,23.00
2022-12-23T00:58:31.919Z,24.75
2022-12-23T01:01:18.674Z,24.00
2022-12-23T01:04:04.052Z,25.50
2022-12-23T01:06:32.024Z,26.00
2022-12-23T01:08:59.929Z,26.00
2022-12-23T01:11:27.795Z,21.25
2022-12-23T01:13:55.949Z,20.00
2022-12-23T01:16:25.238Z,22.75
2022-12-23T01:18:53.159Z,24.50
2022-12-23T01:21:21.098Z,21.75
2022-12-23T01:23:48.989Z,22.75
2022-12-23T01:26:16.863Z,23.00
2022-12-23T01:28:44.756Z,20.50
2022-12-23T01:31:12.788Z,19.75
2022-12-23T01:33:42.458Z,18.25
2022-12-23T01:36:11.462Z,18.50
2022-12-23T01:38:39.372Z,18.75
2022-12-23T01:41:07.267Z,17.00
2022-12-23T01:43:45.405Z,18.00
2022-12-23T01:46:13.424Z,17.00
2022-12-23T01:48:42.787Z,17.00
2022-12-23T01:51:13.040Z,14.75
2022-12-23T01:53:42.024Z,17.75
2022-12-23T01:56:11.612Z,14.50
2022-12-23T01:58:40.447Z,16.00
2022-12-23T02:01:25.952Z,15.50
2022-12-23T02:03:56.804Z,14.50
2022-12-23T02:06:43.504Z,15.25
2022-12-23T02:09:19.461Z,13.75
2022-12-23T02:12:31.448Z,13.00
2022-12-23T02:15:30.398Z,15.25
2022-12-23T02:18:08.541Z,13.25
2022-12-23T02:20:54.944Z,12.50
2022-12-23T02:24:07.678Z,12.00
2022-12-23T02:27:14.743Z,12.00
2022-12-23T02:30:24.994Z,10.00
2022-12-23T02:33:15.133Z,11.00
2022-12-23T02:35:46.338Z,13.50
2022-12-23T02:38:17.523Z,12.75
2022-12-23T02:40:50.915Z,11.75
2022-12-23T02:43:20.513Z,11.75
2022-12-23T02:45:50.826Z,11.00
2022-12-23T02:48:22.498Z,10.50
2022-12-23T02:50:50.367Z,11.00
2022-12-23T02:53:20.361Z,10.00
2022-12-23T02:55:49.030Z,10.25
2022-12-23T02:58:17.707Z,10.00
2022-12-23T03:00:45.599Z,8.25
2022-12-23T03:03:13.621Z,10.00
2022-12-23T03:05:44.025Z,8.75
2022-12-23T03:08:14.079Z,9.25
2022-12-23T03:10:47.381Z,8.50
2022-12-23T03:13:20.133Z,9.00
2022-12-23T03:15:51.808Z,8.00
2022-12-23T03:18:23.722Z,9.50
2022-12-23T03:20:54.133Z,7.50
2022-12-23T03:23:24.522Z,8.50
2022-12-23T03:25:58.580Z,7.75
2022-12-23T03:28:29.727Z,9.00
2022-12-23T03:30:58.411Z,7.00
2022-12-23T03:33:28.417Z,7.50
2022-12-23T03:35:59.247Z,6.75
2022-12-23T03:38:27.115Z,7.75
2022-12-23T03:40:55.654Z,7.00
2022-12-23T03:43:26.791Z,9.00
2022-12-23T03:45:56.458Z,7.25
2022-12-23T03:48:25.084Z,7.50
2022-12-23T03:50:54.156Z,7.75
2022-12-23T03:53:24.758Z,7.00
2022-12-23T03:55:53.907Z,6.00
2022-12-23T03:58:28.077Z,8.00
2022-12-23T04:00:58.778Z,5.75
2022-12-23T04:03:30.106Z,6.25
2022-12-23T04:05:59.272Z,5.00
2022-12-23T04:08:29.678Z,6.00
2022-12-23T04:10:57.831Z,6.00
2022-12-23T04:13:25.708Z,7.25
2022-12-23T04:15:53.680Z,6.25
2022-12-23T04:18:21.598Z,6.75
2022-12-23T04:20:49.512Z,6.25
2022-12-23T04:23:17.372Z,7.00
2022-12-23T04:25:46.905Z,5.75
2022-12-23T04:28:14.798Z,5.75
2022-12-23T04:30:43.868Z,5.00
2022-12-23T04:33:11.857Z,5.25
2022-12-23T04:35:39.815Z,6.00
2022-12-23T04:38:07.733Z,5.00
2022-12-23T04:40:35.610Z,5.00
2022-12-23T04:43:04.871Z,4.00
2022-12-23T04:45:33.621Z,3.75
2022-12-23T04:48:01.461Z,4.75
2022-12-23T04:50:29.335Z,5.75
2022-12-23T04:52:57.196Z,5.00
2022-12-23T04:55:25.324Z,5.00
2022-12-23T04:57:53.260Z,5.75
2022-12-23T05:00:23.223Z,5.25
2022-12-23T05:02:51.156Z,5.00
2022-12-23T05:05:19.444Z,6.25
2022-12-23T05:07:49.928Z,6.25
2022-12-23T05:10:17.955Z,6.00
2022-12-23T05:12:45.882Z,7.25
2022-12-23T05:15:14.025Z,8.25
2022-12-23T05:17:43.300Z,8.50
2022-12-23T05:20:11.855Z,9.00
2022-12-23T05:22:39.741Z,9.00
2022-12-23T05:25:09.049Z,11.25
2022-12-23T05:27:37.252Z,11.00
2022-12-23T05:30:05.842Z,12.50
2022-12-23T05:32:33.743Z,11.25
2022-12-23T05:35:03.329Z,11.75
2022-12-23T05:37:31.210Z,14.00
2022-12-23T05:39:59.072Z,14.00
2022-12-23T05:42:27.152Z,15.00
2022-12-23T05:44:55.071Z,15.50
2022-12-23T05:47:22.921Z,14.25
2022-12-23T05:49:50.826Z,14.75
2022-12-23T05:52:20.079Z,14.00
2022-12-23T05:54:48.226Z,16.50
2022-12-23T05:57:16.102Z,13.50
2022-12-23T05:59:44.012Z,14.00
2022-12-23T06:02:12.036Z,13.75
2022-12-23T06:04:40.369Z,15.00
2022-12-23T06:07:08.315Z,12.25
2022-12-23T06:09:37.545Z,13.75
2022-12-23T06:12:05.863Z,12.50
2022-12-23T06:14:33.733Z,12.75
2022-12-23T06:17:01.668Z,12.25
2022-12-23T06:19:29.616Z,13.00
2022-12-23T06:21:57.504Z,14.00
2022-12-23T06:24:25.661Z,12.00
2022-12-23T06:26:57.310Z,13.75
2022-12-23T06:29:25.572Z,13.25
2022-12-23T06:31:53.531Z,10.75
2022-12-23T06:34:21.818Z,11.75
2022-12-23T06:36:49.724Z,12.00
2022-12-23T06:39:17.630Z,11.25
2022-12-23T06:41:45.543Z,12.25
2022-12-23T06:44:15.088Z,12.00
2022-12-23T06:46:42.921Z,12.00
2022-12-23T06:49:13.391Z,10.00
2022-12-23T06:51:41.759Z,12.00
2022-12-23T06:54:10.930Z,8.50
2022-12-23T06:56:38.901Z,8.25
2022-12-23T06:59:06.811Z,9.50
2022-12-23T07:01:36.199Z,9.00
2022-12-23T07:04:04.567Z,9.50
2022-12-23T07:06:32.449Z,9.50
2022-12-23T07:09:00.524Z,9.50
2022-12-23T07:11:28.415Z,9.75
2022-12-23T07:13:56.785Z,9.00
2022-12-23T07:16:24.795Z,10.75
2022-12-23T07:18:54.087Z,8.00
2022-12-23T07:21:28.889Z,8.00
2022-12-23T07:23:57.479Z,10.75
2022-12-23T07:26:25.432Z,8.25
2022-12-23T07:28:53.325Z,7.25
2022-12-23T07:31:21.323Z,7.00
2022-12-23T07:33:49.610Z,10.00
2022-12-23T07:36:18.930Z,7.75
2022-12-23T07:38:47.018Z,7.50
2022-12-23T07:41:14.907Z,7.00
2022-12-23T07:43:43.084Z,7.00
2022-12-23T07:46:11.060Z,8.50
2022-12-23T07:48:39.003Z,6.50
2022-12-23T07:51:07.107Z,7.00
2022-12-23T07:53:36.859Z,7.00
2022-12-23T07:56:05.240Z,6.00
2022-12-23T07:58:33.169Z,7.25
2022-12-23T08:01:02.443Z,7.50
2022-12-23T08:03:30.545Z,7.00
2022-12-23T08:06:02.659Z,7.75
2022-12-23T08:08:30.646Z,6.25
2022-12-23T08:11:01.298Z,6.00
2022-12-23T08:13:29.271Z,8.50
2022-12-23T08:15:57.861Z,5.50
2022-12-23T08:18:25.754Z,5.00
2022-12-23T08:20:57.263Z,5.75
2022-12-23T08:23:25.682Z,7.00
2022-12-23T08:26:01.653Z,5.50
2022-12-23T08:28:30.085Z,4.50
2022-12-23T08:31:04.740Z,5.00
2022-12-23T08:33:32.692Z,5.25
2022-12-23T08:36:00.606Z,7.00
2022-12-23T08:38:28.503Z,6.75
2022-12-23T08:40:56.374Z,5.00
2022-12-23T08:43:30.239Z,5.50
2022-12-23T08:46:01.685Z,5.00
2022-12-23T08:48:29.655Z,4.25
2022-12-23T08:50:57.586Z,7.00
2022-12-23T08:53:25.517Z,5.00
2022-12-23T08:55:53.664Z,5.25
2022-12-23T08:58:21.552Z,6.00
2022-12-23T09:00:50.855Z,5.00
2022-12-23T09:03:18.838Z,5.00
2022-12-23T09:05:47.284Z,4.25
2022-12-23T09:08:15.196Z,4.00
2022-12-23T09:10:43.604Z,4.50
2022-12-23T09:13:16.252Z,5.00
2022-12-23T09:15:48.297Z,5.00
2022-12-23T09:18:17.574Z,4.50
2022-12-23T09:20:45.449Z,5.25
2022-12-23T09:23:13.361Z,4.00
2022-12-23T09:25:42.016Z,5.50
2022-12-23T09:28:10.500Z,5.00
2022-12-23T09:30:38.421Z,5.00
2022-12-23T09:33:06.313Z,4.75
2022-12-23T09:35:35.866Z,4.00
2022-12-23T09:38:03.789Z,5.00
2022-12-23T09:40:33.182Z,4.25
2022-12-23T09:43:06.343Z,4.00
2022-12-23T09:45:46.042Z,4.00
2022-12-23T09:48:15.964Z,4.00
2022-12-23T09:50:45.616Z,4.75
2022-12-23T09:53:14.904Z,3.75
2022-12-23T09:55:47.283Z,4.50
2022-12-23T09:58:21.011Z,4.75
2022-12-23T10:00:55.073Z,3.75
2022-12-23T10:03:25.363Z,4.50
2022-12-23T10:06:01.152Z,4.25
2022-12-23T10:08:31.461Z,4.50
2022-12-23T10:11:01.312Z,3.00
2022-12-23T10:13:30.622Z,3.00
2022-12-23T10:15:59.997Z,4.25
2022-12-23T10:18:34.570Z,4.00
2022-12-23T10:21:05.415Z,3.00
2022-12-23T10:23:34.382Z,5.00
2022-12-23T10:26:02.269Z,3.50
2022-12-23T10:28:30.263Z,4.25
2022-12-23T10:33:56.079Z,4.00
2022-12-23T10:36:30.548Z,3.00
2022-12-23T10:39:01.895Z,4.00
2022-12-23T10:41:34.623Z,4.00
2022-12-23T10:44:23.177Z,5.00
2022-12-23T10:46:54.085Z,2.00
2022-12-23T10:49:24.910Z,3.00
2022-12-23T10:51:56.020Z,4.00
2022-12-23T10:54:24.988Z,3.25
2022-12-23T10:56:52.821Z,4.00
2022-12-23T10:59:23.123Z,3.00
2022-12-23T11:01:52.748Z,4.00
2022-12-23T11:04:21.503Z,4.25
2022-12-23T11:07:10.582Z,3.75
2022-12-23T11:09:41.849Z,4.00
2022-12-23T11:12:10.627Z,3.00
2022-12-23T11:14:40.020Z,3.00
2022-12-23T11:17:20.279Z,5.00
2022-12-23T11:19:48.195Z,3.00
2022-12-23T11:22:23.681Z,4.50
2022-12-23T11:24:53.238Z,3.00
2022-12-23T11:27:21.152Z,2.75
2022-12-23T11:29:50.366Z,4.00
2022-12-23T11:32:19.808Z,3.50
2022-12-23T11:34:48.063Z,3.00
2022-12-23T11:37:25.991Z,3.00
2022-12-23T11:39:55.291Z,3.00
2022-12-23T11:42:27.252Z,3.00
2022-12-23T11:44:56.025Z,2.00
2022-12-23T11:47:30.779Z,3.00
2022-12-23T11:49:59.225Z,3.00
2022-12-23T11:52:27.570Z,3.00
2022-12-23T11:54:57.998Z,2.75
2022-12-23T11:57:31.928Z,3.00
2022-12-23T12:00:01.493Z,3.00
2022-12-23T12:02:33.471Z,3.00
2022-12-23T12:05:03.299Z,2.50
2022-12-23T12:07:31.595Z,2.00
2022-12-23T12:10:01.391Z,3.00
2022-12-23T12:12:29.384Z,3.00
2022-12-23T12:14:58.519Z,2.00
2022-12-23T12:17:28.406Z,3.00
2022-12-23T12:20:00.341Z,3.00
2022-12-23T12:22:32.454Z,3.00
2022-12-23T12:25:02.800Z,3.00
2022-12-23T12:27:34.811Z,3.00
2022-12-23T12:30:08.389Z,4.00
2022-12-23T12:32:42.113Z,3.00
2022-12-23T12:35:13.851Z,2.50
2022-12-23T12:37:44.181Z,2.00
2022-12-23T12:40:19.384Z,4.00
2022-12-23T12:42:49.136Z,2.25
2022-12-23T12:45:19.094Z,3.50
2022-12-23T12:47:54.945Z,2.75
2022-12-23T12:50:27.884Z,3.00
2022-12-23T12:52:56.504Z,3.25
2022-12-23T12:55:29.602Z,3.00
2022-12-23T12:57:57.646Z,3.00
2022-12-23T13:00:25.680Z,2.50
2022-12-23T13:03:09.077Z,2.00
2022-12-23T13:05:54.110Z,2.25
2022-12-23T13:08:32.395Z,2.00
2022-12-23T13:11:04.206Z,3.00
2022-12-23T13:13:37.249Z,3.00
2022-12-23T13:16:09.159Z,2.00
2022-12-23T13:18:40.342Z,2.00
2022-12-23T13:21:12.261Z,2.50
2022-12-23T13:23:44.667Z,3.00
2022-12-23T13:26:23.016Z,2.00
2022-12-23T13:28:55.530Z,2.00
2022-12-23T13:31:29.484Z,3.00
2022-12-23T13:33:59.226Z,2.00
2022-12-23T13:36:37.422Z,3.00
2022-12-23T13:39:18.497Z,2.00
2022-12-23T13:41:48.548Z,2.00
2022-12-23T13:44:18.656Z,2.25
2022-12-23T13:46:51.684Z,3.00
2022-12-23T13:49:25.828Z,4.50
2022-12-23T13:51:56.510Z,3.00
2022-12-23T13:54:29.105Z,2.00
2022-12-23T13:57:08.020Z,2.75
2022-12-23T13:59:39.564Z,2.50
2022-12-23T14:02:44.665Z,2.00
2022-12-23T14:05:36.052Z,2.00
2022-12-23T14:08:06.649Z,2.00
2022-12-23T14:10:34.656Z,2.00
2022-12-23T14:13:08.484Z,2.00
2022-12-23T14:15:59.659Z,2.50
2022-12-23T14:19:04.773Z,2.00
2022-12-23T14:21:39.063Z,2.00
2022-12-23T14:24:42.888Z,2.00
2022-12-23T14:27:38.386Z,2.75
2022-12-23T14:30:12.704Z,3.00
2022-12-23T14:32:44.301Z,1.50
2022-12-23T14:35:29.218Z,2.50
2022-12-23T14:38:10.258Z,2.00
2022-12-23T14:41:23.904Z,2.00
2022-12-23T14:44:02.662Z,2.00
2022-12-23T14:46:55.309Z,3.00
2022-12-23T14:49:43.040Z,2.00
2022-12-23T14:52:44.834Z,1.25
2022-12-23T14:55:44.967Z,2.00
2022-12-23T14:58:35.363Z,2.00
2022-12-23T15:01:04.671Z,2.50
2022-12-23T15:03:35.985Z,2.25
2022-12-23T15:06:05.931Z,2.00
2022-12-23T15:08:35.019Z,3.50
2022-12-23T15:11:02.957Z,2.00
2022-12-23T15:13:30.849Z,2.00
2022-12-23T15:16:01.718Z,2.00
2022-12-23T15:18:30.342Z,2.00
2022-12-23T15:21:03.929Z,1.75
2022-12-23T15:23:33.304Z,2.50
2022-12-23T15:26:01.293Z,2.00
2022-12-23T15:28:36.191Z,2.00
2022-12-23T15:31:05.026Z,4.00
2022-12-23T15:36:28.478Z,7.75
2022-12-23T15:38:56.411Z,6.00
2022-12-23T15:41:24.295Z,10.00
2022-12-23T15:43:52.601Z,10.50
2022-12-23T15:46:28.650Z,8.25
2022-12-23T15:48:57.936Z,11.00
2022-12-23T15:52:05.209Z,11.50
2022-12-23T15:54:22.298Z,9.75
2022-12-23T15:56:51.135Z,11.00
2022-12-23T15:59:22.724Z,10.00
2022-12-23T16:01:51.070Z,13.00
2022-12-23T16:04:20.896Z,11.75
2022-12-23T16:06:51.131Z,14.00
2022-12-23T16:09:33.173Z,13.75
2022-12-23T16:12:02.304Z,12.25
2022-12-23T16:14:35.874Z,15.75
2022-12-23T16:17:15.222Z,14.75
2022-12-23T16:19:44.861Z,11.75
2022-12-23T16:22:29.149Z,13.25
2022-12-23T16:25:03.084Z,13.75
2022-12-23T16:27:36.184Z,14.50
2022-12-23T16:30:10.587Z,14.00
2022-12-23T16:32:45.531Z,14.25
2022-12-23T16:35:14.171Z,14.00
2022-12-23T16:37:46.103Z,14.00
2022-12-23T16:40:19.543Z,13.75
2022-12-23T16:42:47.422Z,15.50
2022-12-23T16:45:16.263Z,14.25
2022-12-23T16:47:44.161Z,13.75
2022-12-23T16:50:13.193Z,15.75
2022-12-23T16:52:41.161Z,14.00
2022-12-23T16:55:18.435Z,13.00
2022-12-23T16:57:46.809Z,14.25
2022-12-23T17:00:16.328Z,12.25
2022-12-23T17:02:44.382Z,12.50
2022-12-23T17:05:16.380Z,13.00
2022-12-23T17:07:45.610Z,12.50
2022-12-23T17:10:16.220Z,11.75
2022-12-23T17:12:44.330Z,13.00
2022-12-23T17:15:17.128Z,13.75
2022-12-23T17:17:45.113Z,15.50
2022-12-23T17:20:13.695Z,17.50
2022-12-23T17:22:41.669Z,13.50
2022-12-23T17:25:11.469Z,16.25
2022-12-23T17:27:41.097Z,15.25
2022-12-23T17:30:15.093Z,18.25
2022-12-23T17:32:42.994Z,20.75
2022-12-23T17:35:14.967Z,18.25
2022-12-23T17:37:43.523Z,18.50
2022-12-23T17:40:12.927Z,18.75
2022-12-23T17:42:42.219Z,19.50
2022-12-23T17:45:21.651Z,18.00
2022-12-23T17:47:49.694Z,17.00
2022-12-23T17:50:18.117Z,19.00
2022-12-23T17:52:46.211Z,17.25
2022-12-23T17:55:17.835Z,21.00
2022-12-23T17:57:47.254Z,17.25
2022-12-23T18:00:25.123Z,16.00
2022-12-23T18:02:57.663Z,16.75
2022-12-23T18:05:26.864Z,16.00
2022-12-23T18:07:55.424Z,17.50
2022-12-23T18:10:25.424Z,16.00
2022-12-23T18:12:56.046Z,19.50
2022-12-23T18:15:24.896Z,16.50
2022-12-23T18:17:53.062Z,20.00
2022-12-23T18:20:23.047Z,19.75
2022-12-23T18:22:52.643Z,17.25
2022-12-23T18:25:21.741Z,17.75
2022-12-23T18:27:49.705Z,15.00
2022-12-23T18:30:19.557Z,16.50
2022-12-23T18:32:47.452Z,18.75
2022-12-23T18:35:33.262Z,20.75
2022-12-23T18:38:01.202Z,17.00
2022-12-23T18:40:32.968Z,16.50
2022-12-23T18:43:01.380Z,18.00
2022-12-23T18:45:36.954Z,17.25
2022-12-23T18:48:05.880Z,20.00
2022-12-23T18:50:34.408Z,19.75
2022-12-23T18:53:02.306Z,19.25
2022-12-23T18:55:30.871Z,18.75
2022-12-23T18:57:59.004Z,19.25
2022-12-23T19:00:28.238Z,18.25
2022-12-23T19:02:57.651Z,17.75
2022-12-23T19:05:26.649Z,19.00
2022-12-23T19:07:56.092Z,15.50
2022-12-23T19:10:25.376Z,20.25
2022-12-23T19:12:53.549Z,18.00
2022-12-23T19:15:21.668Z,17.75
2022-12-23T19:17:50.324Z,16.75
2022-12-23T19:20:19.921Z,17.75
2022-12-23T19:22:48.073Z,17.50
2022-12-23T19:25:16.962Z,17.00
2022-12-23T19:27:44.909Z,14.50
2022-12-23T19:30:14.387Z,15.50
2022-12-23T19:32:42.335Z,14.50
2022-12-23T19:35:12.339Z,15.50
2022-12-23T19:37:41.567Z,14.50
2022-12-23T19:40:10.861Z,16.50
2022-12-23T19:42:38.962Z,14.50
2022-12-23T19:45:09.229Z,14.75
2022-12-23T19:47:37.209Z,15.00
2022-12-23T19:50:06.071Z,13.00
2022-12-23T19:52:33.981Z,12.50
2022-12-23T19:55:03.379Z,13.25
2022-12-23T19:57:31.544Z,14.50
2022-12-23T19:59:59.706Z,12.00
2022-12-23T20:02:27.730Z,11.25
2022-12-23T20:04:55.713Z,11.00
2022-12-23T20:07:23.593Z,10.00
2022-12-23T20:09:51.779Z,12.00
2022-12-23T20:12:21.043Z,11.00
2022-12-23T20:14:48.940Z,11.50
2022-12-23T20:17:16.844Z,10.25
2022-12-23T20:19:46.280Z,10.25
2022-12-23T20:22:14.414Z,9.00
2022-12-23T20:24:42.307Z,10.25
2022-12-23T20:27:12.545Z,9.75
2022-12-23T20:29:43.577Z,9.75
2022-12-23T20:32:11.653Z,10.25
2022-12-23T20:34:40.309Z,9.75
2022-12-23T20:37:08.424Z,8.50
2022-12-23T20:39:36.561Z,11.00
2022-12-23T20:42:05.295Z,9.25
2022-12-23T20:44:35.769Z,9.00
2022-12-23T20:47:06.095Z,10.50
2022-12-23T20:49:34.506Z,8.25
2022-12-23T20:52:02.504Z,9.50
2022-12-23T20:54:33.758Z,10.50
2022-12-23T20:57:02.085Z,7.75
2022-12-23T20:59:29.966Z,7.75
2022-12-23T21:01:59.127Z,8.25
2022-12-23T21:04:28.779Z,7.00
2022-12-23T21:06:56.654Z,7.25
2022-12-23T21:09:24.525Z,7.00
2022-12-23T21:11:52.743Z,6.50
2022-12-23T21:14:20.593Z,8.00
2022-12-23T21:16:48.575Z,6.75
2022-12-23T21:19:17.462Z,7.00
2022-12-23T21:21:46.769Z,6.00
2022-12-23T21:24:14.832Z,6.00
2022-12-23T21:26:42.841Z,6.00
2022-12-23T21:29:11.267Z,8.00
2022-12-23T21:31:40.894Z,7.50
2022-12-23T21:34:08.964Z,6.00
2022-12-23T21:36:38.547Z,6.00
2022-12-23T21:39:07.931Z,7.00
2022-12-23T21:41:37.188Z,7.00
2022-12-23T21:44:05.461Z,6.00
2022-12-23T21:46:33.396Z,5.00
2022-12-23T21:49:01.353Z,7.25
2022-12-23T21:51:36.913Z,4.00
2022-12-23T21:54:09.393Z,5.00
2022-12-23T21:56:37.403Z,4.00
2022-12-23T21:59:06.659Z,6.00
2022-12-23T22:01:35.221Z,5.00
2022-12-23T22:04:03.322Z,5.00
2022-12-23T22:06:32.026Z,5.00
2022-12-23T22:08:59.994Z,5.00
2022-12-23T22:11:30.200Z,3.25
2022-12-23T22:13:58.126Z,5.25
2022-12-23T22:16:26.954Z,5.25
2022-12-23T22:18:55.109Z,3.50
2022-12-23T22:21:23.928Z,4.25
2022-12-23T22:23:52.213Z,5.25
2022-12-23T22:26:25.226Z,5.00
2022-12-23T22:28:55.603Z,4.00
2022-12-23T22:31:28.504Z,5.50
2022-12-23T22:33:56.454Z,4.00
2022-12-23T22:36:24.424Z,4.00
2022-12-23T22:38:52.827Z,4.25
2022-12-23T22:41:20.841Z,3.00
2022-12-23T22:43:48.812Z,4.00
2022-12-23T22:46:18.455Z,4.00
2022-12-23T22:48:46.698Z,4.00
2022-12-23T22:51:15.765Z,3.25
2022-12-23T22:53:43.636Z,4.00
2022-12-23T22:56:11.928Z,4.50
2022-12-23T22:58:39.809Z,4.00
2022-12-23T23:01:07.812Z,3.25
2022-12-23T23:03:37.062Z,3.75
2022-12-23T23:06:05.930Z,3.00
2022-12-23T23:08:34.129Z,3.25
2022-12-23T23:11:03.777Z,3.75
2022-12-23T23:13:32.565Z,3.00
2022-12-23T23:16:00.689Z,2.25
2022-12-23T23:18:28.767Z,3.00
2022-12-23T23:20:58.353Z,2.00
2022-12-23T23:23:26.247Z,3.25
2022-12-23T23:25:54.114Z,3.50
2022-12-23T23:28:22.089Z,3.25
2022-12-23T23:30:59.057Z,3.00
2022-12-23T23:33:37.879Z,3.00
2022-12-23T23:36:08.382Z,3.00
2022-12-23T23:38:36.358Z,4.00
2022-12-23T23:41:04.423Z,3.75
2022-12-23T23:43:32.330Z,4.00
2022-12-23T23:46:00.280Z,3.00
2022-12-23T23:48:28.285Z,3.00
2022-12-23T23:51:04.092Z,3.00
2022-12-23T23:53:33.392Z,2.50
2022-12-23T23:56:05.515Z,3.25
2022-12-23T23:58:33.480Z,2.25
